createdAt,value
2023-03-06T00:01:17.794Z,98141.11
2023-03-06T00:03:45.684Z,98139.17
2023-03-06T00:06:13.615Z,98143.52
2023-03-06T00:08:44.431Z,98152.27
2023-03-06T00:11:14.910Z,98151.07
2023-03-06T00:13:42.685Z,98149.77
2023-03-06T00:16:15.631Z,98149.39
2023-03-06T00:18:44.161Z,98142.02
2023-03-06T00:21:14.139Z,98145.63
2023-03-06T00:23:41.913Z,98140.39
2023-03-06T00:26:10.284Z,98144.55
2023-03-06T00:28:38.247Z,98141.03
2023-03-06T00:31:06.294Z,98140.86
2023-03-06T00:33:34.161Z,98138.92
2023-03-06T00:36:05.040Z,98133.65
2023-03-06T00:38:37.492Z,98134.12
2023-03-06T00:41:13.448Z,98135.66
2023-03-06T00:43:44.315Z,98129.55
2023-03-06T00:46:12.248Z,98128.64
2023-03-06T00:48:42.276Z,98129.98
2023-03-06T00:51:12.805Z,98129.45
2023-03-06T00:53:41.604Z,98126.67
2023-03-06T00:56:09.473Z,98125.95
2023-03-06T00:58:37.767Z,98126.62
2023-03-06T01:01:05.895Z,98128.35
2023-03-06T01:03:34.080Z,98127.59
2023-03-06T01:06:02.141Z,98127.51
2023-03-06T01:08:30.221Z,98128.90
2023-03-06T01:10:58.295Z,98129.42
2023-03-06T01:13:36.100Z,98126.98
2023-03-06T01:16:10.351Z,98124.60
2023-03-06T01:18:39.106Z,98126.92
2023-03-06T01:21:07.318Z,98128.11
2023-03-06T01:23:35.257Z,98127.59
2023-03-06T01:26:03.703Z,98128.29
2023-03-06T01:28:34.129Z,98122.33
2023-03-06T01:31:02.142Z,98120.23
2023-03-06T01:33:30.342Z,98115.08
2023-03-06T01:35:58.208Z,98115.77
2023-03-06T01:38:28.458Z,98117.06
2023-03-06T01:41:04.500Z,98115.48
2023-03-06T01:43:35.614Z,98115.48
2023-03-06T01:46:26.621Z,98115.16
2023-03-06T01:49:09.174Z,98119.95
2023-03-06T01:51:48.487Z,98119.04
2023-03-06T01:54:28.245Z,98113.09
2023-03-06T01:57:11.882Z,98111.02
2023-03-06T01:59:42.134Z,98109.98
2023-03-06T02:02:21.963Z,98110.73
2023-03-06T02:04:53.389Z,98109.40
2023-03-06T02:07:21.942Z,98102.36
2023-03-06T02:09:52.268Z,98105.20
2023-03-06T02:12:21.419Z,98104.71
2023-03-06T02:14:50.179Z,98107.60
2023-03-06T02:17:20.600Z,98106.29
2023-03-06T02:20:01.306Z,98098.64
2023-03-06T02:22:46.366Z,98095.15
2023-03-06T02:25:26.507Z,98103.41
2023-03-06T02:27:54.674Z,98114.98
2023-03-06T02:30:26.144Z,98119.34
2023-03-06T02:32:55.025Z,98121.73
2023-03-06T02:35:26.846Z,98121.51
2023-03-06T02:37:57.978Z,98116.31
2023-03-06T02:40:26.670Z,98117.86
2023-03-06T02:42:57.280Z,98115.35
2023-03-06T02:45:38.309Z,98113.13
2023-03-06T02:48:16.462Z,98110.20
2023-03-06T02:50:45.924Z,98108.89
2023-03-06T02:53:16.811Z,98103.98
2023-03-06T02:55:50.302Z,98106.69
2023-03-06T02:58:22.313Z,98110.55
2023-03-06T03:00:50.759Z,98110.92
2023-03-06T03:03:19.007Z,98115.58
2023-03-06T03:05:47.288Z,98112.09
2023-03-06T03:08:15.280Z,98111.21
2023-03-06T03:10:43.354Z,98104.39
2023-03-06T03:13:14.224Z,98105.19
2023-03-06T03:15:42.664Z,98101.16
2023-03-06T03:18:11.947Z,98089.64
2023-03-06T03:20:42.802Z,98092.13
2023-03-06T03:23:13.579Z,98096.28
2023-03-06T03:25:41.496Z,98096.73
2023-03-06T03:28:09.825Z,98103.66
2023-03-06T03:30:39.657Z,98108.16
2023-03-06T03:33:07.986Z,98108.58
2023-03-06T03:35:36.088Z,98109.27
2023-03-06T03:38:04.101Z,98110.63
2023-03-06T03:40:32.499Z,98112.66
2023-03-06T03:43:01.185Z,98107.03
2023-03-06T03:45:29.030Z,98109.34
2023-03-06T03:47:57.025Z,98110.21
2023-03-06T03:50:27.350Z,98114.66
2023-03-06T03:53:04.573Z,98114.81
2023-03-06T03:55:32.784Z,98112.22
2023-03-06T03:58:01.050Z,98109.36
2023-03-06T04:00:29.138Z,98110.39
2023-03-06T04:02:56.913Z,98108.11
2023-03-06T04:05:33.972Z,98108.02
2023-03-06T04:08:03.317Z,98105.24
2023-03-06T04:10:31.639Z,98106.84
2023-03-06T04:13:02.130Z,98104.59
2023-03-06T04:15:32.845Z,98104.45
2023-03-06T04:18:00.756Z,98103.81
2023-03-06T04:20:29.021Z,98105.01
2023-03-06T04:22:59.990Z,98103.84
2023-03-06T04:25:27.832Z,98104.69
2023-03-06T04:27:55.817Z,98101.54
2023-03-06T04:30:34.124Z,98102.11
2023-03-06T04:33:02.610Z,98101.63
2023-03-06T04:35:32.189Z,98100.95
2023-03-06T04:38:00.081Z,98104.61
2023-03-06T04:40:31.387Z,98105.14
2023-03-06T04:43:00.549Z,98109.39
2023-03-06T04:45:30.417Z,98108.11
2023-03-06T04:48:11.196Z,98110.41
2023-03-06T04:50:40.265Z,98107.26
2023-03-06T04:53:19.702Z,98104.17
2023-03-06T04:55:48.090Z,98104.27
2023-03-06T04:58:16.501Z,98106.38
2023-03-06T05:00:44.732Z,98109.15
2023-03-06T05:03:15.295Z,98110.42
2023-03-06T05:05:43.196Z,98109.56
2023-03-06T05:08:15.324Z,98108.99
2023-03-06T05:10:44.917Z,98108.04
2023-03-06T05:13:47.432Z,98102.54
2023-03-06T05:16:15.345Z,98094.66
2023-03-06T05:18:43.304Z,98092.64
2023-03-06T05:21:11.331Z,98103.41
2023-03-06T05:23:39.125Z,98106.27
2023-03-06T05:26:15.542Z,98114.42
2023-03-06T05:28:44.663Z,98112.72
2023-03-06T05:31:12.425Z,98112.39
2023-03-06T05:33:40.967Z,98109.61
2023-03-06T05:36:09.723Z,98103.52
2023-03-06T05:38:37.611Z,98105.92
2023-03-06T05:41:05.488Z,98103.02
2023-03-06T05:43:36.295Z,98099.58
2023-03-06T05:46:06.263Z,98104.98
2023-03-06T05:48:35.238Z,98107.62
2023-03-06T05:51:04.554Z,98109.61
2023-03-06T05:53:32.896Z,98111.95
2023-03-06T05:56:06.908Z,98114.17
2023-03-06T05:58:35.083Z,98113.05
2023-03-06T06:01:14.584Z,98111.86
2023-03-06T06:03:42.923Z,98113.56
2023-03-06T06:06:13.198Z,98119.83
2023-03-06T06:08:44.499Z,98121.66
2023-03-06T06:11:13.472Z,98118.19
2023-03-06T06:13:42.179Z,98119.01
2023-03-06T06:16:16.725Z,98115.58
2023-03-06T06:18:45.790Z,98113.49
2023-03-06T06:21:17.640Z,98119.91
2023-03-06T06:23:46.270Z,98121.11
2023-03-06T06:26:14.033Z,98121.73
2023-03-06T06:28:41.836Z,98119.99
2023-03-06T06:31:12.515Z,98120.88
2023-03-06T06:33:42.071Z,98123.31
2023-03-06T06:36:20.678Z,98122.52
2023-03-06T06:38:49.458Z,98118.73
2023-03-06T06:44:12.597Z,98122.73
2023-03-06T06:49:29.708Z,98125.49
2023-03-06T06:51:58.096Z,98125.05
2023-03-06T06:54:27.695Z,98123.59
2023-03-06T06:56:55.648Z,98131.50
2023-03-06T06:59:31.653Z,98132.64
2023-03-06T07:01:59.498Z,98135.27
2023-03-06T07:04:27.240Z,98137.22
2023-03-06T07:06:57.020Z,98141.84
2023-03-06T07:09:25.340Z,98142.12
2023-03-06T07:11:53.784Z,98146.58
2023-03-06T07:14:25.530Z,98141.83
2023-03-06T07:16:53.375Z,98148.62
2023-03-06T07:19:21.782Z,98152.70
2023-03-06T07:21:49.712Z,98150.38
2023-03-06T07:24:20.613Z,98150.41
2023-03-06T07:26:58.401Z,98151.98
2023-03-06T07:29:26.952Z,98150.08
2023-03-06T07:32:02.216Z,98148.71
2023-03-06T07:34:43.959Z,98146.23
2023-03-06T07:37:12.493Z,98148.42
2023-03-06T07:39:43.209Z,98148.70
2023-03-06T07:42:14.794Z,98150.23
2023-03-06T07:44:42.946Z,98148.64
2023-03-06T07:47:13.912Z,98149.30
2023-03-06T07:49:42.319Z,98152.95
2023-03-06T07:52:11.241Z,98152.11
2023-03-06T07:54:39.246Z,98153.02
2023-03-06T07:57:07.074Z,98156.25
2023-03-06T07:59:34.862Z,98152.48
2023-03-06T08:02:03.705Z,98151.64
2023-03-06T08:04:32.231Z,98149.46
2023-03-06T08:07:00.407Z,98152.91
2023-03-06T08:09:36.987Z,98145.35
2023-03-06T08:12:27.106Z,98143.02
2023-03-06T08:14:56.004Z,98141.06
2023-03-06T08:17:23.984Z,98139.96
2023-03-06T08:19:51.823Z,98136.89
2023-03-06T08:22:20.075Z,98139.34
2023-03-06T08:24:47.832Z,98139.58
2023-03-06T08:27:16.298Z,98141.69
2023-03-06T08:29:44.212Z,98141.52
2023-03-06T08:32:12.400Z,98137.08
2023-03-06T08:34:41.200Z,98138.73
2023-03-06T08:37:09.751Z,98135.64
2023-03-06T08:39:37.940Z,98137.65
2023-03-06T08:42:05.793Z,98138.46
2023-03-06T08:44:56.333Z,98136.65
2023-03-06T08:47:24.633Z,98140.61
2023-03-06T08:49:52.872Z,98139.08
2023-03-06T08:52:21.045Z,98133.84
2023-03-06T08:54:48.823Z,98133.09
2023-03-06T08:57:16.741Z,98128.75
2023-03-06T08:59:44.548Z,98130.41
2023-03-06T09:02:15.371Z,98130.98
2023-03-06T09:04:44.112Z,98127.36
2023-03-06T09:07:12.824Z,98125.92
2023-03-06T09:09:40.747Z,98123.88
2023-03-06T09:12:08.600Z,98123.13
2023-03-06T09:14:39.295Z,98118.50
2023-03-06T09:17:07.646Z,98120.20
2023-03-06T09:19:35.941Z,98120.54
2023-03-06T09:22:03.833Z,98115.38
2023-03-06T09:24:31.771Z,98117.88
2023-03-06T09:26:59.799Z,98111.85
2023-03-06T09:29:27.955Z,98111.02
2023-03-06T09:31:56.220Z,98116.77
2023-03-06T09:34:24.740Z,98111.73
2023-03-06T09:36:57.438Z,98112.89
2023-03-06T09:39:26.231Z,98109.94
2023-03-06T09:41:55.492Z,98105.89
2023-03-06T09:44:27.643Z,98107.15
2023-03-06T09:47:17.644Z,98107.86
2023-03-06T09:50:04.871Z,98109.48
2023-03-06T09:52:46.046Z,98109.35
2023-03-06T09:55:19.200Z,98106.70
2023-03-06T09:58:09.224Z,98102.34
2023-03-06T10:00:59.312Z,98102.45
2023-03-06T10:03:38.956Z,98098.31
2023-03-06T10:06:16.573Z,98097.70
2023-03-06T10:08:55.709Z,98096.11
2023-03-06T10:11:44.809Z,98094.67
2023-03-06T10:14:35.268Z,98091.16
2023-03-06T10:17:05.086Z,98089.52
2023-03-06T10:19:37.158Z,98088.91
2023-03-06T10:22:25.146Z,98086.59
2023-03-06T10:25:19.923Z,98085.52
2023-03-06T10:27:48.314Z,98077.83
2023-03-06T10:30:58.660Z,98076.91
2023-03-06T10:33:38.586Z,98073.82
2023-03-06T10:36:06.649Z,98075.21
2023-03-06T10:38:37.819Z,98079.22
2023-03-06T10:41:12.402Z,98070.73
2023-03-06T10:43:45.405Z,98062.27
2023-03-06T10:46:29.419Z,98062.93
2023-03-06T10:49:00.717Z,98053.91
2023-03-06T10:51:30.844Z,98049.22
2023-03-06T10:54:23.978Z,98045.92
2023-03-06T10:56:52.040Z,98042.14
2023-03-06T10:59:25.337Z,98041.38
2023-03-06T11:02:33.344Z,98040.41
2023-03-06T11:05:01.927Z,98034.90
2023-03-06T11:07:36.995Z,98032.52
2023-03-06T11:10:22.101Z,98030.54
2023-03-06T11:13:07.739Z,98023.64
2023-03-06T11:15:35.886Z,98022.34
2023-03-06T11:18:24.906Z,98014.09
2023-03-06T11:20:55.768Z,98013.70
2023-03-06T11:23:36.305Z,98009.71
2023-03-06T11:26:16.415Z,98004.94
2023-03-06T11:28:59.432Z,98001.20
2023-03-06T12:15:33.975Z,97958.08
2023-03-06T12:18:12.701Z,97956.14
2023-03-06T12:20:47.285Z,97950.66
2023-03-06T12:23:44.769Z,97952.77
2023-03-06T12:39:08.405Z,97956.31
2023-03-06T12:41:42.700Z,97954.66
2023-03-06T12:44:38.250Z,97953.48
2023-03-06T12:47:09.869Z,97952.16
2023-03-06T12:49:41.564Z,97950.83
2023-03-06T12:52:11.046Z,97943.54
2023-03-06T12:54:40.519Z,97945.38
2023-03-06T12:57:08.553Z,97943.67
2023-03-06T12:59:36.631Z,97940.46
2023-03-06T13:02:39.251Z,97942.38
2023-03-06T13:05:29.622Z,97938.17
2023-03-06T13:08:32.102Z,97936.21
2023-03-06T13:11:41.271Z,97928.89
2023-03-06T13:14:54.207Z,97928.41
2023-03-06T13:17:27.706Z,97928.16
2023-03-06T13:20:12.461Z,97926.53
2023-03-06T13:22:40.841Z,97923.11
2023-03-06T13:25:17.500Z,97922.02
2023-03-06T13:27:53.775Z,97919.83
2023-03-06T13:30:21.896Z,97917.27
2023-03-06T13:32:52.088Z,97916.02
2023-03-06T13:35:31.610Z,97910.57
2023-03-06T13:37:59.798Z,97907.59
2023-03-06T13:40:28.082Z,97904.65
2023-03-06T13:43:06.538Z,97903.64
2023-03-06T13:45:38.087Z,97898.15
2023-03-06T13:48:41.569Z,97892.02
2023-03-06T13:50:54.972Z,97890.21
2023-03-06T13:53:41.540Z,97880.80
2023-03-06T13:56:24.092Z,97879.95
2023-03-06T13:59:23.637Z,97879.30
2023-03-06T14:02:17.163Z,97881.67
2023-03-06T14:04:54.053Z,97876.89
2023-03-06T14:07:29.703Z,97870.24
2023-03-06T14:10:00.416Z,97867.88
2023-03-06T14:12:34.158Z,97864.15
2023-03-06T14:15:41.475Z,97864.04
2023-03-06T14:18:25.764Z,97862.31
2023-03-06T14:21:05.706Z,97860.88
2023-03-06T14:23:46.548Z,97855.16
2023-03-06T14:26:18.605Z,97852.73
2023-03-06T14:28:51.258Z,97851.36
2023-03-06T14:31:21.410Z,97853.50
2023-03-06T14:33:53.842Z,97851.44
2023-03-06T14:36:23.137Z,97848.37
2023-03-06T14:38:54.982Z,97848.95
2023-03-06T14:41:28.262Z,97846.63
2023-03-06T14:44:16.021Z,97842.77
2023-03-06T14:46:43.704Z,97842.55
2023-03-06T14:49:15.878Z,97842.67
2023-03-06T14:51:45.934Z,97844.78
2023-03-06T14:54:17.021Z,97848.46
2023-03-06T14:56:46.863Z,97858.09
2023-03-06T14:59:17.965Z,97862.27
2023-03-06T15:01:50.913Z,97864.81
2023-03-06T15:04:41.684Z,97873.96
2023-03-06T15:07:15.735Z,97867.77
2023-03-06T15:09:53.436Z,97871.15
2023-03-06T15:12:23.893Z,97876.41
2023-03-06T15:15:06.084Z,97879.34
2023-03-06T15:17:44.472Z,97881.19
2023-03-06T15:20:36.063Z,97884.15
2023-03-06T15:23:34.355Z,97883.96
2023-03-06T15:26:25.909Z,97887.87
2023-03-06T15:29:03.394Z,97891.86
2023-03-06T15:31:40.276Z,97894.05
2023-03-06T15:34:07.309Z,97896.77
2023-03-06T15:36:36.644Z,97892.67
2023-03-06T15:39:34.282Z,97891.36
2023-03-06T15:42:20.163Z,97897.33
2023-03-06T15:44:55.455Z,97893.10
2023-03-06T15:47:23.338Z,97891.06
2023-03-06T15:49:52.435Z,97884.55
2023-03-06T15:52:20.440Z,97879.66
2023-03-06T15:54:47.391Z,97873.48
2023-03-06T15:57:28.671Z,97875.02
2023-03-06T15:59:55.920Z,97869.79
2023-03-06T16:02:23.713Z,97864.69
2023-03-06T16:04:51.248Z,97863.97
2023-03-06T16:07:17.821Z,97862.13
2023-03-06T16:09:44.863Z,97863.98
2023-03-06T16:12:21.141Z,97860.69
2023-03-06T16:14:48.616Z,97864.41
2023-03-06T16:17:16.016Z,97870.51
2023-03-06T16:19:42.746Z,97871.85
2023-03-06T16:22:09.242Z,97865.82
2023-03-06T16:24:36.750Z,97856.79
2023-03-06T16:27:04.273Z,97853.42
2023-03-06T16:29:31.081Z,97853.67
2023-03-06T16:31:59.995Z,97848.73
2023-03-06T16:34:27.218Z,97843.23
2023-03-06T16:36:53.959Z,97837.32
2023-03-06T16:39:23.122Z,97841.14
2023-03-06T16:41:50.711Z,97839.48
2023-03-06T16:44:17.656Z,97846.95
2023-03-06T16:46:46.454Z,97846.60
2023-03-06T16:49:18.672Z,97856.42
2023-03-06T16:51:45.655Z,97859.55
2023-03-06T16:54:13.266Z,97868.35
2023-03-06T16:56:40.189Z,97876.40
2023-03-06T16:59:06.598Z,97880.08
2023-03-06T17:01:33.154Z,97882.56
2023-03-06T17:03:59.679Z,97888.38
2023-03-06T17:06:27.107Z,97886.09
2023-03-06T17:08:53.984Z,97888.75
2023-03-06T17:11:20.721Z,97893.80
2023-03-06T17:13:47.759Z,97892.02
2023-03-06T17:16:15.863Z,97891.20
2023-03-06T17:18:44.586Z,97888.81
2023-03-06T17:21:14.928Z,97890.36
2023-03-06T17:23:41.746Z,97891.66
2023-03-06T17:26:14.345Z,97893.39
2023-03-06T17:28:41.887Z,97893.80
2023-03-06T17:31:15.945Z,97895.45
2023-03-06T17:33:43.117Z,97896.40
2023-03-06T17:36:11.199Z,97900.11
2023-03-06T17:38:37.740Z,97906.52
2023-03-06T17:41:06.063Z,97904.94
2023-03-06T17:43:33.236Z,97903.06
2023-03-06T17:46:04.621Z,97899.77
2023-03-06T17:48:32.419Z,97902.52
2023-03-06T17:50:58.931Z,97896.41
2023-03-06T17:53:26.378Z,97898.35
2023-03-06T17:55:53.249Z,97899.73
2023-03-06T17:58:19.627Z,97891.05
2023-03-06T18:00:46.627Z,97886.62
2023-03-06T18:03:13.724Z,97884.69
2023-03-06T18:05:40.334Z,97879.84
2023-03-06T18:08:09.581Z,97878.84
2023-03-06T18:10:40.671Z,97879.87
2023-03-06T18:13:08.617Z,97874.52
2023-03-06T18:15:40.126Z,97876.15
2023-03-06T18:18:08.000Z,97874.24
2023-03-06T18:20:39.559Z,97877.10
2023-03-06T18:23:05.998Z,97873.44
2023-03-06T18:25:33.118Z,97874.50
2023-03-06T18:28:00.058Z,97874.45
2023-03-06T18:30:27.169Z,97873.39
2023-03-06T18:32:54.102Z,97878.52
2023-03-06T18:35:20.857Z,97883.56
2023-03-06T18:37:47.338Z,97883.98
2023-03-06T18:40:14.632Z,97889.30
2023-03-06T18:42:41.603Z,97888.95
2023-03-06T18:45:08.862Z,97894.08
2023-03-06T18:47:35.506Z,97898.27
2023-03-06T18:50:02.692Z,97896.98
2023-03-06T18:52:29.851Z,97897.51
2023-03-06T18:54:56.984Z,97897.29
2023-03-06T18:57:23.443Z,97895.98
2023-03-06T18:59:50.101Z,97893.36
2023-03-06T19:02:16.669Z,97892.85
2023-03-06T19:04:43.109Z,97890.40
2023-03-06T19:07:10.121Z,97886.42
2023-03-06T19:09:38.348Z,97882.27
2023-03-06T19:12:05.260Z,97881.95
2023-03-06T19:14:32.082Z,97881.20
2023-03-06T19:16:58.533Z,97881.97
2023-03-06T19:19:25.781Z,97878.70
2023-03-06T19:21:53.454Z,97882.73
2023-03-06T19:24:20.555Z,97882.23
2023-03-06T19:26:47.023Z,97884.67
2023-03-06T19:29:16.456Z,97883.19
2023-03-06T19:31:46.356Z,97880.95
2023-03-06T19:34:14.106Z,97881.77
2023-03-06T19:36:46.124Z,97879.05
2023-03-06T19:39:17.452Z,97877.24
2023-03-06T19:41:45.843Z,97878.02
2023-03-06T19:44:13.979Z,97874.05
2023-03-06T19:46:40.682Z,97871.70
2023-03-06T19:49:11.502Z,97869.92
2023-03-06T19:51:41.351Z,97868.16
2023-03-06T19:54:28.180Z,97866.57
2023-03-06T19:57:00.996Z,97869.98
2023-03-06T19:59:30.724Z,97867.45
2023-03-06T20:01:59.180Z,97868.02
2023-03-06T20:04:29.285Z,97870.36
2023-03-06T20:07:00.345Z,97870.13
2023-03-06T20:09:27.773Z,97869.77
2023-03-06T20:11:57.006Z,97866.44
2023-03-06T20:14:28.354Z,97868.52
2023-03-06T20:17:00.806Z,97867.27
2023-03-06T20:19:31.804Z,97863.63
2023-03-06T20:22:00.903Z,97866.12
2023-03-06T20:24:27.752Z,97867.70
2023-03-06T20:26:59.202Z,97869.19
2023-03-06T20:29:29.121Z,97863.33
2023-03-06T20:32:01.432Z,97863.52
2023-03-06T20:34:31.770Z,97858.44
2023-03-06T20:37:01.300Z,97856.08
2023-03-06T20:39:31.585Z,97856.29
2023-03-06T20:41:59.509Z,97855.89
2023-03-06T20:44:26.864Z,97851.38
2023-03-06T20:46:54.629Z,97850.26
2023-03-06T20:49:21.797Z,97853.49
2023-03-06T20:51:49.742Z,97847.70
2023-03-06T20:54:16.711Z,97846.21
2023-03-06T20:56:48.155Z,97841.80
2023-03-06T20:59:14.968Z,97838.13
2023-03-06T21:01:44.444Z,97839.70
2023-03-06T21:04:13.274Z,97837.39
2023-03-06T21:06:44.661Z,97836.84
2023-03-06T21:09:13.299Z,97837.02
2023-03-06T21:11:39.907Z,97834.95
2023-03-06T21:14:06.489Z,97834.80
2023-03-06T21:16:33.350Z,97838.05
2023-03-06T21:19:00.532Z,97838.53
2023-03-06T21:21:30.443Z,97836.95
2023-03-06T21:23:58.784Z,97837.30
2023-03-06T21:26:29.965Z,97835.34
2023-03-06T21:28:58.275Z,97829.75
2023-03-06T21:31:26.523Z,97828.63
2023-03-06T21:33:53.503Z,97827.55
2023-03-06T21:36:21.265Z,97828.87
2023-03-06T21:38:49.545Z,97825.39
2023-03-06T21:41:19.467Z,97827.84
2023-03-06T21:43:46.343Z,97826.22
2023-03-06T21:46:13.594Z,97824.77
2023-03-06T21:48:40.659Z,97824.41
2023-03-06T21:51:09.920Z,97820.72
2023-03-06T21:53:37.908Z,97819.58
2023-03-06T21:56:04.635Z,97821.11
2023-03-06T21:58:31.291Z,97819.46
2023-03-06T22:00:58.313Z,97820.02
2023-03-06T22:03:25.154Z,97818.48
2023-03-06T22:05:54.285Z,97818.40
2023-03-06T22:08:23.300Z,97820.27
2023-03-06T22:10:50.069Z,97818.80
2023-03-06T22:13:18.682Z,97821.25
2023-03-06T22:15:52.576Z,97821.02
2023-03-06T22:18:19.106Z,97822.27
2023-03-06T22:20:45.621Z,97823.84
2023-03-06T22:23:12.586Z,97827.02
2023-03-06T22:25:39.310Z,97830.02
2023-03-06T22:28:07.130Z,97837.55
2023-03-06T22:30:33.940Z,97837.52
2023-03-06T22:33:00.532Z,97849.50
2023-03-06T22:35:26.967Z,97851.97
2023-03-06T22:37:53.951Z,97856.92
2023-03-06T22:40:21.410Z,97860.80
2023-03-06T22:42:47.846Z,97865.77
2023-03-06T22:45:14.280Z,97866.15
2023-03-06T22:47:40.797Z,97863.98
2023-03-06T22:50:08.563Z,97861.63
2023-03-06T22:52:35.978Z,97857.59
2023-03-06T22:55:02.536Z,97857.09
2023-03-06T22:57:29.546Z,97859.73
2023-03-06T22:59:55.960Z,97857.95
2023-03-06T23:02:23.039Z,97861.53
2023-03-06T23:04:53.244Z,97859.86
2023-03-06T23:07:23.424Z,97857.74
2023-03-06T23:09:49.852Z,97860.67
2023-03-06T23:12:16.284Z,97860.02
2023-03-06T23:14:43.056Z,97857.48
2023-03-06T23:17:10.050Z,97848.37
2023-03-06T23:19:37.494Z,97851.05
2023-03-06T23:22:03.973Z,97845.40
2023-03-06T23:24:32.677Z,97845.81
2023-03-06T23:27:00.036Z,97843.34
2023-03-06T23:29:26.441Z,97840.25
2023-03-06T23:31:53.300Z,97835.54
2023-03-06T23:34:19.775Z,97830.36
2023-03-06T23:36:46.407Z,97829.34
2023-03-06T23:39:13.911Z,97827.89
2023-03-06T23:41:40.397Z,97832.27
2023-03-06T23:44:06.961Z,97829.85
2023-03-06T23:46:34.293Z,97833.09
2023-03-06T23:49:00.749Z,97833.49
2023-03-06T23:51:27.168Z,97832.51
2023-03-06T23:53:56.818Z,97832.33
2023-03-06T23:56:28.139Z,97828.17
2023-03-06T23:58:55.128Z,97829.16
